createdAt,value
2017-10-11T00:00:35.497Z,12.70
2017-10-11T00:03:03.799Z,12.70
2017-10-11T00:05:31.304Z,12.70
2017-10-11T00:07:58.796Z,12.70
2017-10-11T00:10:26.303Z,12.70
2017-10-11T00:12:53.839Z,12.60
2017-10-11T00:15:21.343Z,12.60
2017-10-11T00:17:48.838Z,12.70
2017-10-11T00:20:16.358Z,12.60
2017-10-11T00:22:43.850Z,12.70
2017-10-11T00:25:11.347Z,12.70
2017-10-11T00:27:38.864Z,12.60
2017-10-11T00:30:06.367Z,12.60
2017-10-11T00:32:33.902Z,12.60
2017-10-11T00:35:01.398Z,12.60
2017-10-11T00:37:28.886Z,12.60
2017-10-11T00:39:56.394Z,12.60
2017-10-11T00:42:23.886Z,12.60
2017-10-11T00:44:51.394Z,12.60
2017-10-11T00:47:18.893Z,12.60
2017-10-11T00:49:46.382Z,12.60
2017-10-11T00:52:13.910Z,12.60
2017-10-11T00:54:41.432Z,12.50
2017-10-11T00:57:08.920Z,12.50
2017-10-11T00:59:36.402Z,12.50
2017-10-11T01:02:03.913Z,12.50
2017-10-11T01:04:31.443Z,12.50
2017-10-11T01:06:59.698Z,12.50
2017-10-11T01:09:27.202Z,12.50
2017-10-11T01:11:54.695Z,12.50
2017-10-11T01:14:22.211Z,12.50
2017-10-11T01:16:49.729Z,12.50
2017-10-11T01:19:17.214Z,12.50
2017-10-11T01:21:45.499Z,12.50
2017-10-11T01:24:13.759Z,12.50
2017-10-11T01:26:42.019Z,12.50
2017-10-11T01:29:09.532Z,12.50
2017-10-11T01:31:37.063Z,12.50
2017-10-11T01:34:04.630Z,12.50
2017-10-11T01:36:32.163Z,12.50
2017-10-11T01:38:59.664Z,12.50
2017-10-11T01:41:27.183Z,12.50
2017-10-11T01:43:54.684Z,12.50
2017-10-11T01:46:22.174Z,12.50
2017-10-11T01:48:49.683Z,12.50
2017-10-11T01:51:17.178Z,12.50
2017-10-11T01:53:44.667Z,12.50
2017-10-11T01:56:12.170Z,12.50
2017-10-11T01:58:39.662Z,12.50
2017-10-11T02:01:07.193Z,12.50
2017-10-11T02:03:34.688Z,12.50
2017-10-11T02:06:02.176Z,12.50
2017-10-11T02:08:30.481Z,12.50
2017-10-11T02:10:57.975Z,12.40
2017-10-11T02:13:25.462Z,12.50
2017-10-11T02:15:52.966Z,12.50
2017-10-11T02:18:20.458Z,12.40
2017-10-11T02:20:47.966Z,12.50
2017-10-11T02:23:16.232Z,12.50
2017-10-11T02:25:44.495Z,12.50
2017-10-11T02:28:12.023Z,12.50
2017-10-11T02:30:39.534Z,12.50
2017-10-11T02:33:07.058Z,12.50
2017-10-11T02:35:34.568Z,12.50
2017-10-11T02:38:02.071Z,12.50
2017-10-11T02:40:29.587Z,12.50
2017-10-11T02:42:57.086Z,12.50
2017-10-11T02:45:24.577Z,12.50
2017-10-11T02:47:54.127Z,12.40
2017-10-11T02:50:21.625Z,12.40
2017-10-11T02:52:50.425Z,12.40
2017-10-11T02:55:17.928Z,12.40
2017-10-11T02:57:45.421Z,12.40
2017-10-11T03:00:12.937Z,12.40
2017-10-11T03:02:40.438Z,12.40
2017-10-11T03:05:07.937Z,12.40
2017-10-11T03:07:37.537Z,12.40
2017-10-11T03:10:05.810Z,12.30
2017-10-11T03:12:33.327Z,12.30
2017-10-11T03:15:00.814Z,12.30
2017-10-11T03:17:28.306Z,12.30
2017-10-11T03:19:56.585Z,12.30
2017-10-11T03:22:24.860Z,12.20
2017-10-11T03:24:54.279Z,12.30
2017-10-11T03:27:22.847Z,12.30
2017-10-11T03:29:51.098Z,12.30
2017-10-11T03:32:18.599Z,12.30
2017-10-11T03:34:46.639Z,12.30
2017-10-11T03:37:14.894Z,12.30
2017-10-11T03:39:42.998Z,12.30
2017-10-11T03:42:11.330Z,12.40
2017-10-11T03:44:38.821Z,12.30
2017-10-11T03:47:07.086Z,12.30
2017-10-11T03:49:34.817Z,12.30
2017-10-11T03:52:02.323Z,12.30
2017-10-11T03:54:29.818Z,12.30
2017-10-11T03:56:57.330Z,12.30
2017-10-11T03:59:24.818Z,12.30
2017-10-11T04:01:52.339Z,12.30
2017-10-11T04:04:19.831Z,12.30
2017-10-11T04:06:48.141Z,12.30
2017-10-11T04:09:15.668Z,12.30
2017-10-11T04:11:43.202Z,12.30
2017-10-11T04:14:10.699Z,12.30
2017-10-11T04:16:38.958Z,12.30
2017-10-11T04:19:07.235Z,12.30
2017-10-11T04:21:34.751Z,12.30
2017-10-11T04:24:02.247Z,12.30
2017-10-11T04:26:29.762Z,12.40
2017-10-11T04:28:57.261Z,12.40
2017-10-11T04:31:24.746Z,12.30
2017-10-11T04:33:52.291Z,12.30
2017-10-11T04:36:20.589Z,12.30
2017-10-11T04:38:48.097Z,12.30
2017-10-11T04:41:15.614Z,12.30
2017-10-11T04:43:43.111Z,12.30
2017-10-11T04:46:10.624Z,12.30
2017-10-11T04:48:38.908Z,12.30
2017-10-11T04:51:06.443Z,12.30
2017-10-11T04:53:33.952Z,12.20
2017-10-11T04:56:01.486Z,12.20
2017-10-11T04:58:29.042Z,12.30
2017-10-11T05:00:56.542Z,12.20
2017-10-11T05:03:24.079Z,12.20
2017-10-11T05:05:51.590Z,12.20
2017-10-11T05:08:19.107Z,12.20
2017-10-11T05:10:46.618Z,12.20
2017-10-11T05:13:14.873Z,12.20
2017-10-11T05:15:42.472Z,12.20
2017-10-11T05:18:10.817Z,12.20
2017-10-11T05:20:38.325Z,12.20
2017-10-11T05:23:05.835Z,12.20
2017-10-11T05:25:33.352Z,12.20
2017-10-11T05:28:00.876Z,12.20
2017-10-11T05:30:29.154Z,12.20
2017-10-11T05:32:57.440Z,12.20
2017-10-11T05:35:24.955Z,12.20
2017-10-11T05:37:53.244Z,12.30
2017-10-11T05:40:20.776Z,12.30
2017-10-11T05:42:48.269Z,12.30
2017-10-11T05:45:15.758Z,12.30
2017-10-11T05:47:43.286Z,12.30
2017-10-11T05:50:10.778Z,12.30
2017-10-11T05:52:39.036Z,12.40
2017-10-11T05:55:07.312Z,12.30
2017-10-11T05:57:35.568Z,12.40
2017-10-11T06:00:03.063Z,12.40
2017-10-11T06:02:31.342Z,12.40
2017-10-11T06:04:58.829Z,12.40
2017-10-11T06:07:26.334Z,12.40
2017-10-11T06:09:53.838Z,12.40
2017-10-11T06:12:21.338Z,12.50
2017-10-11T06:14:48.862Z,12.40
2017-10-11T06:17:16.363Z,12.40
2017-10-11T06:19:43.870Z,12.40
2017-10-11T06:22:11.382Z,12.40
2017-10-11T06:24:38.888Z,12.50
2017-10-11T06:27:06.387Z,12.40
2017-10-11T06:29:33.889Z,12.50
2017-10-11T06:32:02.142Z,12.50
2017-10-11T06:34:29.639Z,12.50
2017-10-11T06:36:57.141Z,12.50
2017-10-11T06:39:24.631Z,12.50
2017-10-11T06:41:52.929Z,12.50
2017-10-11T06:44:20.423Z,12.60
2017-10-11T06:46:47.961Z,12.60
2017-10-11T06:49:15.483Z,12.60
2017-10-11T06:51:43.742Z,12.60
2017-10-11T06:54:11.242Z,12.60
2017-10-11T06:56:38.751Z,12.60
2017-10-11T06:59:06.234Z,12.60
2017-10-11T07:01:33.755Z,12.70
2017-10-11T07:04:01.243Z,12.70
2017-10-11T07:06:28.737Z,12.70
2017-10-11T07:08:56.263Z,12.70
2017-10-11T07:11:23.777Z,12.70
2017-10-11T07:13:51.270Z,12.70
2017-10-11T07:16:18.803Z,12.70
2017-10-11T07:18:46.294Z,12.70
2017-10-11T07:21:13.783Z,12.80
2017-10-11T07:23:41.332Z,12.80
2017-10-11T07:26:09.602Z,12.80
2017-10-11T07:28:37.869Z,12.80
2017-10-11T07:31:05.396Z,12.80
2017-10-11T07:33:32.915Z,12.80
2017-10-11T07:36:00.463Z,12.80
2017-10-11T07:38:28.748Z,12.90
2017-10-11T07:40:56.265Z,12.90
2017-10-11T07:43:23.765Z,12.90
2017-10-11T07:45:51.289Z,12.90
2017-10-11T07:48:18.812Z,12.90
2017-10-11T07:50:46.314Z,12.90
2017-10-11T07:53:13.823Z,12.90
2017-10-11T07:55:41.360Z,12.90
2017-10-11T07:58:08.862Z,12.90
2017-10-11T08:00:36.375Z,12.90
2017-10-11T08:03:03.882Z,13.00
2017-10-11T08:05:31.414Z,13.00
2017-10-11T08:07:58.917Z,13.00
2017-10-11T08:10:26.414Z,13.00
2017-10-11T08:12:53.947Z,13.00
2017-10-11T08:15:21.446Z,13.00
2017-10-11T08:17:49.706Z,13.10
2017-10-11T08:20:18.013Z,13.10
2017-10-11T08:22:45.509Z,13.20
2017-10-11T08:25:12.999Z,13.20
2017-10-11T08:27:41.283Z,13.30
2017-10-11T08:30:08.778Z,13.20
2017-10-11T08:32:36.308Z,13.30
2017-10-11T08:35:04.562Z,13.40
2017-10-11T08:37:32.827Z,13.50
2017-10-11T08:40:00.350Z,13.40
2017-10-11T08:42:27.841Z,13.50
2017-10-11T08:44:55.330Z,13.60
2017-10-11T08:47:22.864Z,13.60
2017-10-11T08:49:50.368Z,13.60
2017-10-11T08:52:17.870Z,13.70
2017-10-11T08:54:45.416Z,13.80
2017-10-11T08:57:12.918Z,13.80
2017-10-11T08:59:41.179Z,13.90
2017-10-11T09:02:08.699Z,13.90
2017-10-11T09:04:36.195Z,14.00
2017-10-11T09:07:03.692Z,14.00
2017-10-11T09:09:31.236Z,14.10
2017-10-11T09:11:59.522Z,14.10
2017-10-11T09:14:27.806Z,14.20
2017-10-11T09:16:55.299Z,14.20
2017-10-11T09:19:22.806Z,14.30
2017-10-11T09:21:51.098Z,14.40
2017-10-11T09:24:19.355Z,14.40
2017-10-11T09:26:46.867Z,14.40
2017-10-11T09:29:14.383Z,14.50
2017-10-11T09:31:42.643Z,14.50
2017-10-11T09:34:10.181Z,14.50
2017-10-11T09:36:37.675Z,14.50
2017-10-11T09:39:05.165Z,14.50
2017-10-11T09:41:32.682Z,14.40
2017-10-11T09:44:00.178Z,14.40
2017-10-11T09:46:27.667Z,14.40
2017-10-11T09:48:55.179Z,14.40
2017-10-11T09:51:22.686Z,14.40
2017-10-11T09:53:50.942Z,14.40
2017-10-11T09:56:18.467Z,14.40
2017-10-11T09:58:46.732Z,14.50
2017-10-11T10:01:14.227Z,14.50
2017-10-11T10:03:41.738Z,14.50
2017-10-11T10:06:09.235Z,14.50
2017-10-11T10:08:36.730Z,14.50
2017-10-11T10:11:04.229Z,14.50
2017-10-11T10:13:31.710Z,14.50
2017-10-11T10:15:59.990Z,14.60
2017-10-11T10:18:27.508Z,14.60
2017-10-11T10:20:55.010Z,14.60
2017-10-11T10:23:22.527Z,14.70
2017-10-11T10:25:50.035Z,14.70
2017-10-11T10:28:17.558Z,14.70
2017-10-11T10:30:45.084Z,14.70
2017-10-11T10:33:12.627Z,14.80
2017-10-11T10:35:40.129Z,14.80
2017-10-11T10:38:07.648Z,14.80
2017-10-11T10:40:35.144Z,14.80
2017-10-11T10:43:02.673Z,14.80
2017-10-11T10:45:30.158Z,14.80
2017-10-11T10:47:57.649Z,14.70
2017-10-11T10:50:25.190Z,14.70
2017-10-11T10:52:52.690Z,14.80
2017-10-11T10:55:20.202Z,14.80
2017-10-11T10:57:47.730Z,14.80
2017-10-11T11:00:15.214Z,14.80
2017-10-11T11:02:42.703Z,14.90
2017-10-11T11:05:10.974Z,14.90
2017-10-11T11:07:39.246Z,14.90
2017-10-11T11:10:06.798Z,14.90
2017-10-11T11:12:34.319Z,15.00
2017-10-11T11:15:01.807Z,15.00
2017-10-11T11:17:29.389Z,15.00
2017-10-11T11:19:56.882Z,14.90
2017-10-11T11:22:24.377Z,14.90
2017-10-11T11:24:51.885Z,14.90
2017-10-11T11:27:20.148Z,15.00
2017-10-11T11:29:48.408Z,15.00
2017-10-11T11:32:15.919Z,15.00
2017-10-11T11:34:43.418Z,15.00
2017-10-11T11:37:10.935Z,15.10
2017-10-11T11:39:38.443Z,15.10
2017-10-11T11:42:05.949Z,15.10
2017-10-11T11:44:33.494Z,15.10
2017-10-11T11:47:00.994Z,15.10
2017-10-11T11:49:28.485Z,15.20
2017-10-11T11:51:56.002Z,15.20
2017-10-11T11:54:23.526Z,15.20
2017-10-11T11:56:51.063Z,15.20
2017-10-11T11:59:18.630Z,15.30
2017-10-11T12:01:46.129Z,15.30
2017-10-11T12:04:13.646Z,15.30
2017-10-11T12:06:41.145Z,15.40
2017-10-11T12:09:08.634Z,15.40
2017-10-11T12:11:36.153Z,15.40
2017-10-11T12:14:03.655Z,15.40
2017-10-11T12:16:31.162Z,15.50
2017-10-11T12:18:59.434Z,15.50
2017-10-11T12:21:26.947Z,15.50
2017-10-11T12:23:54.478Z,15.50
2017-10-11T12:26:21.973Z,15.60
2017-10-11T12:28:49.514Z,15.60
2017-10-11T12:31:17.066Z,15.60
2017-10-11T12:33:44.638Z,15.60
2017-10-11T12:36:12.125Z,15.70
2017-10-11T12:38:39.635Z,15.70
2017-10-11T12:41:07.125Z,15.70
2017-10-11T12:43:35.411Z,15.70
2017-10-11T12:46:02.916Z,15.70
2017-10-11T12:48:30.418Z,15.70
2017-10-11T12:50:57.940Z,15.70
2017-10-11T12:53:25.443Z,15.70
2017-10-11T12:55:52.938Z,15.70
2017-10-11T12:58:21.235Z,15.70
2017-10-11T13:00:48.751Z,15.70
2017-10-11T13:03:16.263Z,15.70
2017-10-11T13:05:43.762Z,15.70
2017-10-11T13:08:11.260Z,15.70
2017-10-11T13:10:38.808Z,15.80
2017-10-11T13:13:07.084Z,15.70
2017-10-11T13:15:35.339Z,15.70
2017-10-11T13:18:02.888Z,15.60
2017-10-11T13:20:31.144Z,15.70
2017-10-11T13:22:58.702Z,15.70
2017-10-11T13:25:26.274Z,15.70
2017-10-11T13:27:53.763Z,15.80
2017-10-11T13:30:22.045Z,15.80
2017-10-11T13:32:49.563Z,15.80
2017-10-11T13:35:17.067Z,15.80
2017-10-11T13:37:44.574Z,15.80
2017-10-11T13:40:12.082Z,15.80
2017-10-11T13:42:40.363Z,15.80
2017-10-11T13:45:08.647Z,15.90
2017-10-11T13:47:36.906Z,15.90
2017-10-11T13:50:04.402Z,15.90
2017-10-11T13:52:31.922Z,15.90
2017-10-11T13:54:59.411Z,15.90
2017-10-11T13:57:26.971Z,15.90
2017-10-11T13:59:55.250Z,16.00
2017-10-11T14:02:23.527Z,16.10
2017-10-11T14:04:51.781Z,16.20
2017-10-11T14:07:19.273Z,16.20
2017-10-11T14:09:46.786Z,16.20
2017-10-11T14:12:14.283Z,16.20
2017-10-11T14:14:41.794Z,16.20
2017-10-11T14:17:09.319Z,16.10
2017-10-11T14:19:36.819Z,16.10
2017-10-11T14:22:04.339Z,16.10
2017-10-11T14:24:31.851Z,16.10
2017-10-11T14:26:59.367Z,16.20
2017-10-11T14:29:26.877Z,16.30
2017-10-11T14:31:54.391Z,16.30
2017-10-11T14:34:21.890Z,16.30
2017-10-11T14:36:49.386Z,16.30
2017-10-11T14:39:16.907Z,16.30
2017-10-11T14:41:44.406Z,16.30
2017-10-11T14:44:11.930Z,16.30
2017-10-11T14:46:40.191Z,16.20
2017-10-11T14:49:07.691Z,16.30
2017-10-11T14:51:35.209Z,16.20
2017-10-11T14:54:03.483Z,16.20
2017-10-11T14:56:30.986Z,16.20
2017-10-11T14:58:58.518Z,16.20
2017-10-11T15:01:26.005Z,16.20
2017-10-11T15:03:53.509Z,16.20
2017-10-11T15:06:21.034Z,16.20
2017-10-11T15:08:48.519Z,16.20
2017-10-11T15:11:16.019Z,16.20
2017-10-11T15:13:44.311Z,16.20
2017-10-11T15:16:12.569Z,16.20
2017-10-11T15:18:40.063Z,16.20
2017-10-11T15:21:07.570Z,16.20
2017-10-11T15:23:35.045Z,16.20
2017-10-11T15:26:03.298Z,16.10
2017-10-11T15:28:30.802Z,16.10
2017-10-11T15:30:59.054Z,16.10
2017-10-11T15:33:27.325Z,16.10
2017-10-11T15:35:54.834Z,16.10
2017-10-11T15:38:22.340Z,16.10
2017-10-11T15:40:50.593Z,16.10
2017-10-11T15:43:18.112Z,16.10
2017-10-11T15:45:45.617Z,16.20
2017-10-11T15:48:13.138Z,16.50
2017-10-11T15:50:40.640Z,16.80
2017-10-11T15:53:08.130Z,16.90
2017-10-11T15:55:35.641Z,17.10
2017-10-11T15:58:03.159Z,17.10
2017-10-11T16:00:31.449Z,16.80
2017-10-11T16:02:58.970Z,16.80
2017-10-11T16:05:26.480Z,16.70
2017-10-11T16:07:53.982Z,16.60
2017-10-11T16:10:21.507Z,16.60
2017-10-11T16:12:49.007Z,16.50
2017-10-11T16:15:16.501Z,16.40
2017-10-11T16:17:44.022Z,16.30
2017-10-11T16:20:11.521Z,16.20
2017-10-11T16:22:39.061Z,16.10
2017-10-11T16:25:06.583Z,16.10
2017-10-11T16:27:34.094Z,16.00
2017-10-11T16:30:02.356Z,15.80
2017-10-11T16:32:30.635Z,15.70
2017-10-11T16:34:58.925Z,15.60
2017-10-11T16:37:27.179Z,15.50
2017-10-11T16:39:55.478Z,15.40
2017-10-11T16:42:22.979Z,15.40
2017-10-11T16:44:50.494Z,15.30
2017-10-11T16:47:17.986Z,15.30
2017-10-11T16:49:45.477Z,15.20
2017-10-11T16:52:12.995Z,15.20
2017-10-11T16:54:40.497Z,15.10
2017-10-11T16:57:07.994Z,15.10
2017-10-11T16:59:35.511Z,15.10
2017-10-11T17:02:02.999Z,15.00
2017-10-11T17:04:31.250Z,14.80
2017-10-11T17:06:58.772Z,14.80
2017-10-11T17:09:26.275Z,14.80
2017-10-11T17:11:54.614Z,14.60
2017-10-11T17:14:22.124Z,14.60
2017-10-11T17:16:50.382Z,14.50
2017-10-11T17:19:17.914Z,14.50
2017-10-11T17:21:45.415Z,14.40
2017-10-11T17:24:12.920Z,14.40
2017-10-11T17:26:40.439Z,14.30
2017-10-11T17:29:08.707Z,14.20
2017-10-11T17:31:36.225Z,14.20
2017-10-11T17:34:03.711Z,14.20
2017-10-11T17:36:31.201Z,14.10
2017-10-11T17:38:58.711Z,14.00
2017-10-11T17:41:26.210Z,14.00
2017-10-11T17:43:54.471Z,13.90
2017-10-11T17:46:21.986Z,13.80
2017-10-11T17:48:49.491Z,13.80
2017-10-11T17:51:16.977Z,13.70
2017-10-11T17:53:45.156Z,13.60
2017-10-11T17:56:13.898Z,13.50
2017-10-11T17:58:41.428Z,13.50
2017-10-11T18:01:09.047Z,13.50
2017-10-11T18:03:36.652Z,13.50
2017-10-11T18:06:04.218Z,13.50
2017-10-11T18:08:31.719Z,13.40
2017-10-11T18:10:59.996Z,13.30
2017-10-11T18:13:27.522Z,13.30
2017-10-11T18:15:55.026Z,13.30
2017-10-11T18:18:22.580Z,13.20
2017-10-11T18:20:50.887Z,13.00
2017-10-11T18:23:18.394Z,13.00
2017-10-11T18:25:46.537Z,13.00
2017-10-11T18:28:14.103Z,13.00
2017-10-11T18:30:41.696Z,13.00
2017-10-11T18:33:09.189Z,13.00
2017-10-11T18:35:37.650Z,12.90
2017-10-11T18:38:05.427Z,12.90
2017-10-11T18:40:33.522Z,12.90
2017-10-11T18:43:01.043Z,12.80
2017-10-11T18:45:29.515Z,12.70
2017-10-11T18:47:57.562Z,12.70
2017-10-11T18:50:25.598Z,12.70
2017-10-11T18:52:53.422Z,12.70
2017-10-11T18:55:21.179Z,12.60
2017-10-11T18:57:48.812Z,12.50
2017-10-11T19:00:16.334Z,12.60
2017-10-11T19:02:44.703Z,12.40
2017-10-11T19:05:12.838Z,12.40
2017-10-11T19:07:40.367Z,12.40
2017-10-11T19:10:08.158Z,12.30
2017-10-11T19:12:35.679Z,12.20
2017-10-11T19:15:03.372Z,12.30
2017-10-11T19:17:31.175Z,12.30
2017-10-11T19:19:58.676Z,12.20
2017-10-11T19:22:27.066Z,12.10
2017-10-11T19:24:54.661Z,12.10
2017-10-11T19:27:22.175Z,12.10
2017-10-11T19:29:49.706Z,12.10
2017-10-11T19:32:17.346Z,12.00
2017-10-11T19:34:45.819Z,12.00
2017-10-11T19:37:14.228Z,12.00
2017-10-11T19:39:41.813Z,11.90
2017-10-11T19:42:10.098Z,11.90
2017-10-11T19:44:38.774Z,11.90
2017-10-11T19:47:07.658Z,11.90
2017-10-11T19:49:36.004Z,11.80
2017-10-11T19:52:03.676Z,11.80
2017-10-11T19:54:31.610Z,11.80
2017-10-11T19:56:59.478Z,11.70
2017-10-11T19:59:27.039Z,11.70
2017-10-11T20:01:54.883Z,11.60
2017-10-11T20:04:23.165Z,11.60
2017-10-11T20:06:51.640Z,11.50
2017-10-11T20:09:20.290Z,11.50
2017-10-11T20:11:49.349Z,11.50
2017-10-11T20:14:16.930Z,11.50
2017-10-11T20:16:44.427Z,11.40
2017-10-11T20:19:11.932Z,11.40
2017-10-11T20:21:39.470Z,11.40
2017-10-11T20:24:06.965Z,11.30
2017-10-11T20:26:35.439Z,11.30
2017-10-11T20:29:03.135Z,11.20
2017-10-11T20:31:30.629Z,11.20
2017-10-11T20:33:58.189Z,11.20
2017-10-11T20:36:25.719Z,11.10
2017-10-11T20:38:53.208Z,11.10
2017-10-11T20:41:20.971Z,11.10
2017-10-11T20:43:49.242Z,11.00
2017-10-11T20:46:17.497Z,10.90
2017-10-11T20:48:45.783Z,10.90
2017-10-11T20:51:14.091Z,10.90
2017-10-11T20:53:41.595Z,10.90
2017-10-11T20:56:09.102Z,10.90
2017-10-11T20:58:36.666Z,10.80
2017-10-11T21:01:04.228Z,10.80
2017-10-11T21:03:31.790Z,10.80
2017-10-11T21:05:59.315Z,10.80
2017-10-11T21:08:26.827Z,10.80
2017-10-11T21:10:54.342Z,10.70
2017-10-11T21:13:22.602Z,10.60
2017-10-11T21:15:50.123Z,10.60
2017-10-11T21:18:17.634Z,10.60
2017-10-11T21:20:45.159Z,10.60
2017-10-11T21:23:12.659Z,10.50
2017-10-11T21:25:40.934Z,10.50
2017-10-11T21:28:09.214Z,10.50
2017-10-11T21:30:37.469Z,10.50
2017-10-11T21:33:04.963Z,10.50
2017-10-11T21:35:32.510Z,10.50
2017-10-11T21:38:00.008Z,10.40
2017-10-11T21:40:27.504Z,10.40
2017-10-11T21:42:55.026Z,10.40
2017-10-11T21:45:22.518Z,10.30
2017-10-11T21:47:50.038Z,10.30
2017-10-11T21:50:17.536Z,10.20
2017-10-11T21:52:45.789Z,10.10
2017-10-11T21:55:13.298Z,10.10
2017-10-11T21:57:41.559Z,10.20
2017-10-11T22:00:09.043Z,10.20
2017-10-11T22:02:36.568Z,10.20
2017-10-11T22:05:04.058Z,10.20
2017-10-11T22:07:31.542Z,10.10
2017-10-11T22:09:59.066Z,10.10
2017-10-11T22:12:27.334Z,10.00
2017-10-11T22:14:55.613Z,10.00
2017-10-11T22:17:23.886Z,9.90
2017-10-11T22:19:51.370Z,9.90
2017-10-11T22:22:19.637Z,9.90
2017-10-11T22:24:47.887Z,9.90
2017-10-11T22:27:15.376Z,9.80
2017-10-11T22:29:43.650Z,9.80
2017-10-11T22:32:11.904Z,9.80
2017-10-11T22:34:39.399Z,9.80
2017-10-11T22:37:06.910Z,9.80
2017-10-11T22:39:34.398Z,9.70
2017-10-11T22:42:01.907Z,9.80
2017-10-11T22:44:29.394Z,9.70
2017-10-11T22:46:56.887Z,9.70
2017-10-11T22:49:25.175Z,9.50
2017-10-11T22:51:52.669Z,9.50
2017-10-11T22:54:20.162Z,9.40
2017-10-11T22:56:47.680Z,9.50
2017-10-11T22:59:15.167Z,9.50
2017-10-11T23:01:42.662Z,9.50
2017-10-11T23:04:10.934Z,9.60
2017-10-11T23:06:39.197Z,9.50
2017-10-11T23:09:07.456Z,9.50
2017-10-11T23:11:34.966Z,9.50
2017-10-11T23:14:02.458Z,9.50
2017-10-11T23:16:29.950Z,9.50
2017-10-11T23:18:57.453Z,9.40
2017-10-11T23:21:24.938Z,9.30
2017-10-11T23:23:53.218Z,9.40
2017-10-11T23:26:20.724Z,9.40
2017-10-11T23:28:48.214Z,9.40
2017-10-11T23:31:15.727Z,9.40
2017-10-11T23:33:43.209Z,9.50
2017-10-11T23:36:10.706Z,9.50
2017-10-11T23:38:38.218Z,9.50
2017-10-11T23:41:05.729Z,9.40
2017-10-11T23:43:33.210Z,9.40
2017-10-11T23:46:00.716Z,9.30
2017-10-11T23:48:28.206Z,9.40
2017-10-11T23:50:55.743Z,9.30
2017-10-11T23:53:23.239Z,9.30
2017-10-11T23:55:50.734Z,9.30
2017-10-11T23:58:18.255Z,9.20
